createdAt,value
2022-11-15T00:00:57.466Z,99.96
2022-11-15T00:03:28.870Z,100.00
2022-11-15T00:05:55.842Z,100.00
2022-11-15T00:08:22.403Z,100.00
2022-11-15T00:11:00.249Z,100.00
2022-11-15T00:13:27.149Z,100.00
2022-11-15T00:15:53.864Z,100.00
2022-11-15T00:18:20.462Z,100.00
2022-11-15T00:20:47.055Z,100.00
2022-11-15T00:23:13.554Z,100.00
2022-11-15T00:25:40.271Z,100.00
2022-11-15T00:28:06.921Z,100.00
2022-11-15T00:30:33.795Z,100.00
2022-11-15T00:33:04.803Z,100.00
2022-11-15T00:35:35.333Z,100.00
2022-11-15T00:38:02.871Z,100.00
2022-11-15T00:40:29.718Z,100.00
2022-11-15T00:42:56.506Z,100.00
2022-11-15T00:45:23.368Z,100.00
2022-11-15T00:47:49.888Z,100.00
2022-11-15T00:50:16.606Z,100.00
2022-11-15T00:52:43.456Z,100.00
2022-11-15T00:55:17.629Z,100.00
2022-11-15T00:57:44.275Z,100.00
2022-11-15T01:00:11.564Z,100.00
2022-11-15T01:02:38.130Z,100.00
2022-11-15T01:05:05.332Z,100.00
2022-11-15T01:07:31.928Z,100.00
2022-11-15T01:09:58.481Z,100.00
2022-11-15T01:12:24.999Z,100.00
2022-11-15T01:14:51.510Z,100.00
2022-11-15T01:17:18.066Z,100.00
2022-11-15T01:19:44.822Z,100.00
2022-11-15T01:22:11.374Z,100.00
2022-11-15T01:24:37.951Z,100.00
2022-11-15T01:27:04.522Z,100.00
2022-11-15T01:29:31.031Z,100.00
2022-11-15T01:31:57.498Z,100.00
2022-11-15T01:34:24.009Z,100.00
2022-11-15T01:36:50.627Z,100.00
2022-11-15T01:39:17.789Z,100.00
2022-11-15T01:41:44.878Z,100.00
2022-11-15T01:44:29.430Z,100.00
2022-11-15T01:46:55.985Z,100.00
2022-11-15T01:49:24.670Z,100.00
2022-11-15T01:51:51.602Z,100.00
2022-11-15T01:54:21.927Z,100.00
2022-11-15T01:56:53.081Z,100.00
2022-11-15T01:59:20.568Z,100.00
2022-11-15T02:01:47.420Z,100.00
2022-11-15T02:04:29.536Z,100.00
2022-11-15T02:06:56.107Z,100.00
2022-11-15T02:09:22.657Z,100.00
2022-11-15T02:11:51.518Z,100.00
2022-11-15T02:14:21.002Z,100.00
2022-11-15T02:16:47.484Z,100.00
2022-11-15T02:19:32.453Z,100.00
2022-11-15T02:22:17.772Z,100.00
2022-11-15T02:25:11.059Z,100.00
2022-11-15T02:27:40.405Z,100.00
2022-11-15T02:30:37.398Z,100.00
2022-11-15T02:33:28.230Z,100.00
2022-11-15T02:36:01.983Z,100.00
2022-11-15T02:38:51.561Z,100.00
2022-11-15T02:41:25.055Z,100.00
2022-11-15T02:44:05.949Z,100.00
2022-11-15T02:47:11.722Z,100.00
2022-11-15T02:49:38.719Z,100.00
2022-11-15T02:52:05.415Z,100.00
2022-11-15T02:54:33.766Z,100.00
2022-11-15T02:57:08.194Z,100.00
2022-11-15T02:59:53.385Z,100.00
2022-11-15T03:02:38.715Z,100.00
2022-11-15T03:05:26.290Z,100.00
2022-11-15T03:08:04.704Z,100.00
2022-11-15T03:10:38.538Z,100.00
2022-11-15T03:13:14.252Z,100.00
2022-11-15T03:16:22.494Z,100.00
2022-11-15T03:18:57.866Z,100.00
2022-11-15T03:21:26.097Z,100.00
2022-11-15T03:23:56.183Z,100.00
2022-11-15T03:26:25.731Z,100.00
2022-11-15T03:28:58.701Z,100.00
2022-11-15T03:31:50.530Z,100.00
2022-11-15T03:34:47.026Z,100.00
2022-11-15T03:37:16.456Z,100.00
2022-11-15T03:39:44.284Z,100.00
2022-11-15T03:42:32.544Z,100.00
2022-11-15T03:45:13.201Z,100.00
2022-11-15T03:47:59.876Z,100.00
2022-11-15T03:50:27.668Z,100.00
2022-11-15T03:52:56.012Z,100.00
2022-11-15T03:55:22.925Z,100.00
2022-11-15T03:57:54.103Z,100.00
2022-11-15T04:00:20.702Z,100.00
2022-11-15T04:02:47.238Z,100.00
2022-11-15T04:05:13.774Z,100.00
2022-11-15T04:07:40.405Z,100.00
2022-11-15T04:10:07.896Z,100.00
2022-11-15T04:12:37.056Z,100.00
2022-11-15T04:15:09.285Z,100.00
2022-11-15T04:17:40.095Z,100.00
2022-11-15T04:20:40.539Z,100.00
2022-11-15T04:23:34.330Z,100.00
2022-11-15T04:26:05.409Z,100.00
2022-11-15T04:28:32.075Z,100.00
2022-11-15T04:30:58.563Z,100.00
2022-11-15T04:33:25.107Z,100.00
2022-11-15T04:36:10.183Z,100.00
2022-11-15T04:38:38.369Z,100.00
2022-11-15T04:41:05.039Z,100.00
2022-11-15T04:43:32.154Z,100.00
2022-11-15T04:45:58.987Z,100.00
2022-11-15T04:48:25.517Z,100.00
2022-11-15T04:50:52.021Z,100.00
2022-11-15T04:53:18.540Z,100.00
2022-11-15T04:55:47.937Z,100.00
2022-11-15T04:58:14.573Z,100.00
2022-11-15T05:00:41.225Z,100.00
2022-11-15T05:03:28.372Z,100.00
2022-11-15T05:05:55.338Z,100.00
2022-11-15T05:08:21.906Z,100.00
2022-11-15T05:10:48.840Z,100.00
2022-11-15T05:13:15.408Z,100.00
2022-11-15T05:15:41.943Z,100.00
2022-11-15T05:18:08.529Z,100.00
2022-11-15T05:20:35.080Z,100.00
2022-11-15T05:23:01.595Z,100.00
2022-11-15T05:25:28.304Z,100.00
2022-11-15T05:27:55.086Z,100.00
2022-11-15T05:30:21.594Z,100.00
2022-11-15T05:32:48.709Z,100.00
2022-11-15T05:35:33.525Z,100.00
2022-11-15T05:38:00.183Z,100.00
2022-11-15T05:40:28.567Z,100.00
2022-11-15T05:42:55.240Z,100.00
2022-11-15T05:45:26.761Z,100.00
2022-11-15T05:47:57.923Z,100.00
2022-11-15T05:50:24.719Z,100.00
2022-11-15T05:52:52.407Z,100.00
2022-11-15T05:55:19.141Z,100.00
2022-11-15T05:57:45.983Z,100.00
2022-11-15T06:00:13.342Z,100.00
2022-11-15T06:02:39.763Z,100.00
2022-11-15T06:05:06.548Z,100.00
2022-11-15T06:07:33.192Z,100.00
2022-11-15T06:10:00.048Z,100.00
2022-11-15T06:12:26.610Z,100.00
2022-11-15T06:14:53.107Z,100.00
2022-11-15T06:17:19.604Z,100.00
2022-11-15T06:19:46.138Z,100.00
2022-11-15T06:22:12.664Z,100.00
2022-11-15T06:24:39.211Z,100.00
2022-11-15T06:27:05.784Z,100.00
2022-11-15T06:29:32.267Z,100.00
2022-11-15T06:31:58.777Z,100.00
2022-11-15T06:34:25.524Z,100.00
2022-11-15T06:36:52.081Z,100.00
2022-11-15T06:39:18.603Z,100.00
2022-11-15T06:41:45.156Z,100.00
2022-11-15T06:44:11.699Z,100.00
2022-11-15T06:46:38.252Z,100.00
2022-11-15T06:49:09.357Z,100.00
2022-11-15T06:51:36.470Z,100.00
2022-11-15T06:54:03.152Z,100.00
2022-11-15T06:56:29.723Z,100.00
2022-11-15T06:58:56.727Z,100.00
2022-11-15T07:01:23.490Z,100.00
2022-11-15T07:03:50.044Z,100.00
2022-11-15T07:06:16.611Z,100.00
2022-11-15T07:08:44.260Z,100.00
2022-11-15T07:11:10.783Z,100.00
2022-11-15T07:13:38.350Z,100.00
2022-11-15T07:16:07.049Z,100.00
2022-11-15T07:18:37.863Z,100.00
2022-11-15T07:21:05.673Z,100.00
2022-11-15T07:23:33.364Z,100.00
2022-11-15T07:26:01.117Z,100.00
2022-11-15T07:28:28.288Z,100.00
2022-11-15T07:30:55.696Z,100.00
2022-11-15T07:33:22.677Z,100.00
2022-11-15T07:35:52.118Z,100.00
2022-11-15T07:38:21.531Z,100.00
2022-11-15T07:40:48.588Z,100.00
2022-11-15T07:43:15.209Z,100.00
2022-11-15T07:45:46.341Z,100.00
2022-11-15T07:48:12.845Z,100.00
2022-11-15T07:50:42.659Z,100.00
2022-11-15T07:53:10.524Z,100.00
2022-11-15T07:55:37.480Z,100.00
2022-11-15T07:58:06.176Z,100.00
2022-11-15T08:00:33.913Z,100.00
2022-11-15T08:03:12.023Z,100.00
2022-11-15T08:05:40.282Z,100.00
2022-11-15T08:08:08.354Z,100.00
2022-11-15T08:10:40.296Z,100.00
2022-11-15T08:13:12.046Z,100.00
2022-11-15T08:15:39.299Z,100.00
2022-11-15T08:18:16.512Z,100.00
2022-11-15T08:20:43.530Z,100.00
2022-11-15T08:23:11.476Z,100.00
2022-11-15T08:25:38.090Z,100.00
2022-11-15T08:28:06.902Z,100.00
2022-11-15T08:30:43.097Z,100.00
2022-11-15T08:33:14.325Z,100.00
2022-11-15T08:35:42.188Z,100.00
2022-11-15T08:38:09.423Z,100.00
2022-11-15T08:40:36.918Z,100.00
2022-11-15T08:43:03.972Z,100.00
2022-11-15T08:45:31.186Z,100.00
2022-11-15T08:47:57.796Z,100.00
2022-11-15T08:50:24.455Z,100.00
2022-11-15T08:52:51.080Z,100.00
2022-11-15T08:55:17.902Z,100.00
2022-11-15T08:57:44.725Z,100.00
2022-11-15T09:00:12.847Z,100.00
2022-11-15T09:02:40.237Z,100.00
2022-11-15T09:05:07.156Z,100.00
2022-11-15T09:07:33.952Z,100.00
2022-11-15T09:10:01.088Z,100.00
2022-11-15T09:12:27.602Z,100.00
2022-11-15T09:14:54.193Z,100.00
2022-11-15T09:17:24.745Z,100.00
2022-11-15T09:19:51.921Z,100.00
2022-11-15T09:22:18.873Z,100.00
2022-11-15T09:24:45.538Z,100.00
2022-11-15T09:29:56.472Z,100.00
2022-11-15T09:32:26.025Z,100.00
2022-11-15T09:34:52.660Z,100.00
2022-11-15T09:37:19.169Z,99.20
2022-11-15T09:39:45.682Z,94.90
2022-11-15T09:42:41.499Z,96.64
2022-11-15T09:45:16.896Z,92.77
2022-11-15T09:48:04.652Z,94.23
2022-11-15T09:50:47.956Z,95.96
2022-11-15T09:53:50.765Z,95.03
2022-11-15T09:56:31.874Z,95.90
2022-11-15T09:59:07.199Z,92.23
2022-11-15T10:01:55.810Z,91.80
2022-11-15T10:04:24.791Z,89.84
2022-11-15T10:07:05.371Z,88.12
2022-11-15T10:09:50.267Z,89.28
2022-11-15T10:12:17.453Z,89.58
2022-11-15T10:14:50.305Z,88.93
2022-11-15T10:17:28.762Z,88.77
2022-11-15T10:20:20.030Z,88.93
2022-11-15T10:23:01.166Z,87.63
2022-11-15T10:25:33.210Z,86.67
2022-11-15T10:28:17.476Z,85.58
2022-11-15T10:30:50.605Z,85.47
2022-11-15T10:33:37.896Z,85.10
2022-11-15T10:36:10.636Z,85.43
2022-11-15T10:38:49.201Z,86.88
2022-11-15T10:41:18.265Z,83.21
2022-11-15T10:43:45.762Z,81.49
2022-11-15T10:46:45.078Z,83.01
2022-11-15T10:49:17.862Z,79.95
2022-11-15T10:51:52.906Z,80.81
2022-11-15T10:54:44.663Z,81.35
2022-11-15T10:57:17.586Z,81.21
2022-11-15T10:59:50.864Z,80.83
2022-11-15T11:02:36.963Z,80.66
2022-11-15T11:05:06.786Z,80.13
2022-11-15T11:07:35.738Z,79.32
2022-11-15T11:10:49.191Z,83.90
2022-11-15T11:13:30.297Z,76.90
2022-11-15T11:15:56.748Z,77.83
2022-11-15T11:18:33.445Z,75.39
2022-11-15T11:21:07.919Z,75.09
2022-11-15T11:23:55.472Z,75.29
2022-11-15T11:26:41.971Z,75.20
2022-11-15T11:29:33.038Z,74.31
2022-11-15T11:32:20.647Z,75.86
2022-11-15T11:35:04.415Z,73.71
2022-11-15T11:38:07.810Z,74.28
2022-11-15T11:40:59.079Z,74.05
2022-11-15T11:43:40.765Z,72.28
2022-11-15T11:46:25.422Z,72.78
2022-11-15T11:49:05.138Z,73.56
2022-11-15T11:51:40.878Z,70.17
2022-11-15T11:54:29.307Z,74.35
2022-11-15T11:56:56.674Z,70.64
2022-11-15T11:59:32.324Z,72.87
2022-11-15T12:02:23.798Z,69.70
2022-11-15T12:04:56.185Z,68.09
2022-11-15T12:07:28.864Z,67.67
2022-11-15T12:10:02.540Z,68.62
2022-11-15T12:12:43.226Z,70.32
2022-11-15T12:15:09.749Z,72.21
2022-11-15T12:17:38.059Z,65.98
2022-11-15T12:20:15.764Z,65.83
2022-11-15T12:22:48.427Z,66.34
2022-11-15T12:25:30.465Z,66.24
2022-11-15T12:28:02.755Z,65.65
2022-11-15T12:30:52.757Z,66.07
2022-11-15T12:33:31.222Z,65.04
2022-11-15T12:36:22.360Z,64.61
2022-11-15T12:38:48.950Z,64.62
2022-11-15T12:41:20.366Z,64.18
2022-11-15T12:43:49.543Z,64.01
2022-11-15T12:46:22.501Z,62.92
2022-11-15T12:48:52.698Z,64.89
2022-11-15T12:51:23.149Z,63.04
2022-11-15T12:53:49.716Z,63.13
2022-11-15T12:56:16.150Z,63.05
2022-11-15T12:59:06.245Z,62.17
2022-11-15T13:01:36.146Z,62.20
2022-11-15T13:04:29.648Z,61.70
2022-11-15T13:06:59.692Z,62.07
2022-11-15T13:09:35.217Z,61.19
2022-11-15T13:12:15.874Z,61.05
2022-11-15T13:15:00.008Z,61.04
2022-11-15T13:17:40.677Z,61.95
2022-11-15T13:20:07.155Z,61.65
2022-11-15T13:23:00.246Z,60.77
2022-11-15T13:25:45.188Z,61.28
2022-11-15T13:28:37.824Z,61.04
2022-11-15T13:31:28.432Z,59.96
2022-11-15T13:33:59.136Z,63.17
2022-11-15T13:36:29.795Z,62.77
2022-11-15T13:38:58.407Z,62.34
2022-11-15T13:41:27.967Z,62.37
2022-11-15T13:43:56.150Z,63.84
2022-11-15T13:46:34.042Z,64.25
2022-11-15T13:49:06.890Z,63.09
2022-11-15T13:51:53.249Z,63.77
2022-11-15T13:54:28.262Z,66.50
2022-11-15T13:56:59.730Z,65.05
2022-11-15T13:59:29.177Z,65.62
2022-11-15T14:02:00.449Z,65.52
2022-11-15T14:04:30.824Z,65.16
2022-11-15T14:06:59.735Z,66.13
2022-11-15T14:09:38.030Z,67.07
2022-11-15T14:12:24.600Z,67.83
2022-11-15T14:14:51.292Z,70.28
2022-11-15T14:17:31.504Z,70.49
2022-11-15T14:19:59.079Z,71.77
2022-11-15T14:22:27.063Z,71.93
2022-11-15T14:25:17.651Z,72.71
2022-11-15T14:27:46.260Z,74.81
2022-11-15T14:30:18.795Z,74.59
2022-11-15T14:32:48.715Z,74.37
2022-11-15T14:35:19.236Z,76.18
2022-11-15T14:37:46.542Z,77.00
2022-11-15T14:40:15.988Z,76.49
2022-11-15T14:42:43.519Z,75.58
2022-11-15T14:45:17.507Z,74.45
2022-11-15T14:47:44.765Z,77.19
2022-11-15T14:50:20.297Z,76.56
2022-11-15T14:52:48.143Z,78.84
2022-11-15T14:55:28.596Z,80.04
2022-11-15T14:57:56.302Z,80.58
2022-11-15T15:00:23.460Z,80.74
2022-11-15T15:02:53.639Z,80.07
2022-11-15T15:05:31.479Z,79.30
2022-11-15T15:07:58.370Z,82.02
2022-11-15T15:10:40.128Z,81.45
2022-11-15T15:13:32.084Z,83.06
2022-11-15T15:15:58.646Z,83.76
2022-11-15T15:18:25.185Z,85.19
2022-11-15T15:21:01.074Z,84.24
2022-11-15T15:23:30.252Z,84.86
2022-11-15T15:25:56.971Z,85.59
2022-11-15T15:28:23.637Z,85.52
2022-11-15T15:30:50.792Z,84.35
2022-11-15T15:33:17.457Z,86.30
2022-11-15T15:35:45.115Z,87.13
2022-11-15T15:38:16.400Z,86.69
2022-11-15T15:40:43.050Z,87.29
2022-11-15T15:43:10.242Z,88.40
2022-11-15T15:45:41.275Z,89.43
2022-11-15T15:48:13.718Z,89.03
2022-11-15T15:50:40.660Z,88.37
2022-11-15T15:53:09.094Z,88.21
2022-11-15T15:55:35.961Z,88.65
2022-11-15T15:58:02.514Z,88.58
2022-11-15T16:00:29.600Z,87.90
2022-11-15T16:02:56.369Z,88.12
2022-11-15T16:05:23.412Z,88.44
2022-11-15T16:07:50.119Z,88.47
2022-11-15T16:10:19.628Z,88.43
2022-11-15T16:12:47.518Z,88.03
2022-11-15T16:15:14.093Z,88.30
2022-11-15T16:17:49.419Z,87.73
2022-11-15T16:20:24.300Z,88.20
2022-11-15T16:22:50.881Z,88.49
2022-11-15T16:25:17.414Z,88.21
2022-11-15T16:27:45.982Z,87.95
2022-11-15T16:30:17.841Z,87.77
2022-11-15T16:32:44.642Z,88.42
2022-11-15T16:35:16.423Z,88.15
2022-11-15T16:37:44.970Z,88.13
2022-11-15T16:40:25.999Z,88.23
2022-11-15T16:42:52.572Z,88.24
2022-11-15T16:45:19.184Z,88.29
2022-11-15T16:47:45.711Z,87.97
2022-11-15T16:50:27.688Z,88.53
2022-11-15T16:52:56.134Z,89.09
2022-11-15T16:55:25.575Z,88.81
2022-11-15T16:57:52.632Z,88.81
2022-11-15T17:00:20.500Z,89.11
2022-11-15T17:02:49.107Z,89.06
2022-11-15T17:05:20.261Z,89.56
2022-11-15T17:07:54.184Z,90.00
2022-11-15T17:10:23.353Z,90.38
2022-11-15T17:12:50.513Z,91.07
2022-11-15T17:15:17.302Z,90.79
2022-11-15T17:17:44.941Z,90.66
2022-11-15T17:20:15.725Z,91.52
2022-11-15T17:22:42.449Z,92.56
2022-11-15T17:25:09.749Z,93.34
2022-11-15T17:27:36.490Z,94.22
2022-11-15T17:30:03.597Z,92.81
2022-11-15T17:32:30.086Z,92.62
2022-11-15T17:34:56.583Z,92.82
2022-11-15T17:37:23.230Z,92.50
2022-11-15T17:39:49.792Z,92.74
2022-11-15T17:42:16.358Z,93.09
2022-11-15T17:44:42.921Z,93.52
2022-11-15T17:47:09.459Z,94.97
2022-11-15T17:49:39.458Z,96.08
2022-11-15T17:52:06.283Z,96.97
2022-11-15T17:54:32.896Z,96.43
2022-11-15T17:56:59.450Z,96.00
2022-11-15T17:59:26.045Z,93.62
2022-11-15T18:01:54.065Z,93.47
2022-11-15T18:04:21.130Z,96.84
2022-11-15T18:06:47.781Z,97.31
2022-11-15T18:09:14.371Z,95.27
2022-11-15T18:11:43.185Z,95.57
2022-11-15T18:14:15.648Z,95.89
2022-11-15T18:16:42.802Z,95.95
2022-11-15T18:19:13.248Z,96.10
2022-11-15T18:21:57.294Z,97.03
2022-11-15T18:24:29.792Z,97.06
2022-11-15T18:26:57.255Z,97.82
2022-11-15T18:29:24.860Z,97.87
2022-11-15T18:31:55.809Z,99.22
2022-11-15T18:34:23.989Z,99.50
2022-11-15T18:36:53.923Z,100.00
2022-11-15T18:39:20.773Z,100.00
2022-11-15T18:41:47.989Z,99.88
2022-11-15T18:44:15.364Z,99.19
2022-11-15T18:46:42.978Z,100.00
2022-11-15T18:49:10.872Z,100.00
2022-11-15T18:51:37.993Z,100.00
2022-11-15T18:54:04.892Z,98.53
2022-11-15T18:56:32.645Z,98.50
2022-11-15T18:59:02.037Z,98.48
2022-11-15T19:01:33.871Z,99.08
2022-11-15T19:04:11.621Z,99.70
2022-11-15T19:06:40.774Z,99.65
2022-11-15T19:09:08.661Z,98.24
2022-11-15T19:11:39.356Z,98.78
2022-11-15T19:14:08.561Z,99.24
2022-11-15T19:16:38.127Z,98.66
2022-11-15T19:19:07.275Z,99.26
2022-11-15T19:21:34.614Z,100.00
2022-11-15T19:24:01.553Z,100.00
2022-11-15T19:26:29.447Z,100.00
2022-11-15T19:28:58.480Z,100.00
2022-11-15T19:31:26.509Z,100.00
2022-11-15T19:33:53.943Z,100.00
2022-11-15T19:36:21.899Z,100.00
2022-11-15T19:38:48.887Z,100.00
2022-11-15T19:41:20.688Z,100.00
2022-11-15T19:43:48.176Z,100.00
2022-11-15T19:46:15.432Z,100.00
2022-11-15T19:48:42.076Z,100.00
2022-11-15T19:51:12.093Z,100.00
2022-11-15T19:53:39.288Z,100.00
2022-11-15T19:56:08.351Z,100.00
2022-11-15T19:58:34.988Z,100.00
2022-11-15T20:01:05.719Z,100.00
2022-11-15T20:03:33.629Z,100.00
2022-11-15T20:06:05.153Z,100.00
2022-11-15T20:08:32.505Z,100.00
2022-11-15T20:11:00.109Z,100.00
2022-11-15T20:13:27.142Z,100.00
2022-11-15T20:15:53.941Z,100.00
2022-11-15T20:18:21.619Z,100.00
2022-11-15T20:20:48.750Z,100.00
2022-11-15T20:23:15.729Z,100.00
2022-11-15T20:25:46.576Z,100.00
2022-11-15T20:28:31.358Z,100.00
2022-11-15T20:31:00.231Z,100.00
2022-11-15T20:33:27.698Z,100.00
2022-11-15T20:35:54.478Z,100.00
2022-11-15T20:38:21.819Z,100.00
2022-11-15T20:40:49.928Z,100.00
2022-11-15T20:43:19.210Z,100.00
2022-11-15T20:45:47.660Z,100.00
2022-11-15T20:48:14.947Z,100.00
2022-11-15T20:50:43.846Z,100.00
2022-11-15T20:53:13.851Z,100.00
2022-11-15T20:55:41.693Z,100.00
2022-11-15T20:58:09.733Z,100.00
2022-11-15T21:00:37.355Z,100.00
2022-11-15T21:03:06.992Z,100.00
2022-11-15T21:05:41.887Z,100.00
2022-11-15T21:08:09.761Z,100.00
2022-11-15T21:10:55.528Z,100.00
2022-11-15T21:13:22.658Z,100.00
2022-11-15T21:15:49.329Z,100.00
2022-11-15T21:18:16.369Z,100.00
2022-11-15T21:20:43.282Z,100.00
2022-11-15T21:23:10.243Z,100.00
2022-11-15T21:25:36.718Z,100.00
2022-11-15T21:28:03.494Z,100.00
2022-11-15T21:30:30.385Z,100.00
2022-11-15T21:32:56.979Z,100.00
2022-11-15T21:35:23.905Z,100.00
2022-11-15T21:37:56.110Z,100.00
2022-11-15T21:40:23.817Z,100.00
2022-11-15T21:42:50.654Z,100.00
2022-11-15T21:45:17.233Z,100.00
2022-11-15T21:47:46.392Z,100.00
2022-11-15T21:50:13.865Z,100.00
2022-11-15T21:52:40.827Z,100.00
2022-11-15T21:55:08.239Z,100.00
2022-11-15T21:57:34.849Z,100.00
2022-11-15T22:00:20.003Z,100.00
2022-11-15T22:02:46.554Z,100.00
2022-11-15T22:05:13.129Z,100.00
2022-11-15T22:07:39.747Z,100.00
2022-11-15T22:10:07.047Z,100.00
2022-11-15T22:12:33.577Z,100.00
2022-11-15T22:15:00.216Z,100.00
2022-11-15T22:17:46.813Z,100.00
2022-11-15T22:20:37.801Z,100.00
2022-11-15T22:23:00.233Z,100.00
2022-11-15T22:25:26.870Z,100.00
2022-11-15T22:27:53.946Z,100.00
2022-11-15T22:30:21.232Z,100.00
2022-11-15T22:32:47.899Z,100.00
2022-11-15T22:35:14.586Z,100.00
2022-11-15T22:37:41.327Z,100.00
2022-11-15T22:40:08.533Z,100.00
2022-11-15T22:42:35.135Z,100.00
2022-11-15T22:45:01.710Z,100.00
2022-11-15T22:47:28.238Z,100.00
2022-11-15T22:49:54.789Z,100.00
2022-11-15T22:52:21.406Z,100.00
2022-11-15T22:54:48.048Z,100.00
2022-11-15T22:57:14.656Z,100.00
2022-11-15T22:59:42.469Z,100.00
2022-11-15T23:02:09.119Z,100.00
2022-11-15T23:04:35.876Z,100.00
2022-11-15T23:07:02.468Z,100.00
2022-11-15T23:09:29.062Z,100.00
2022-11-15T23:12:14.162Z,100.00
2022-11-15T23:14:40.809Z,100.00
2022-11-15T23:17:07.368Z,100.00
2022-11-15T23:19:33.975Z,100.00
2022-11-15T23:22:19.251Z,100.00
2022-11-15T23:24:45.809Z,100.00
2022-11-15T23:27:15.380Z,100.00
2022-11-15T23:30:00.955Z,100.00
2022-11-15T23:32:45.763Z,100.00
2022-11-15T23:35:12.569Z,100.00
2022-11-15T23:37:39.285Z,100.00
2022-11-15T23:40:06.791Z,100.00
2022-11-15T23:42:33.387Z,100.00
2022-11-15T23:44:59.950Z,100.00
2022-11-15T23:47:26.498Z,100.00
2022-11-15T23:49:53.050Z,100.00
2022-11-15T23:52:19.679Z,100.00
2022-11-15T23:54:46.240Z,100.00
2022-11-15T23:57:12.940Z,100.00
2022-11-15T23:59:45.853Z,100.00
